Time;durP1;ratioP1;P1;durP2;ratioP2;P2;SDS_P1;SDS_P2;PMS_P1;PMS_P2;Temp;Humidity;BMP_temperature;BMP_pressure;BME280_temperature;BME280_humidity;BME280_pressure;Samples;Min_cycle;Max_cycle;Signal;HPM_P1;HPM_P2
2022/05/21 00:00:30;;;;;;;11.45;8.25;;;12.70;99.90;;;;;;5063013;28;20491;-47
2022/05/21 00:02:56;;;;;;;10.30;7.88;;;12.70;99.90;;;;;;5065785;28;20068;-42
2022/05/21 00:05:25;;;;;;;10.98;7.65;;;12.70;99.90;;;;;;5064674;28;20107;-41
2022/05/21 00:07:52;;;;;;;11.40;8.98;;;12.80;99.90;;;;;;5061234;28;20151;-41
2022/05/21 00:10:19;;;;;;;14.52;9.05;;;12.80;99.90;;;;;;5065475;28;20109;-42
2022/05/21 00:12:45;;;;;;;9.85;7.72;;;12.90;99.90;;;;;;5064706;28;20044;-41
2022/05/21 00:15:13;;;;;;;9.30;7.75;;;12.90;99.90;;;;;;5065448;28;20666;-39
2022/05/21 00:17:38;;;;;;;11.02;8.20;;;13.00;99.90;;;;;;5064743;28;20150;-42
2022/05/21 00:20:07;;;;;;;11.35;8.52;;;13.00;99.90;;;;;;5065760;28;20448;-40
2022/05/21 00:22:32;;;;;;;12.70;9.38;;;13.10;99.90;;;;;;5064159;28;20025;-42
2022/05/21 00:24:58;;;;;;;12.13;8.93;;;13.10;99.90;;;;;;5065606;28;20041;-41
2022/05/21 00:27:23;;;;;;;14.27;9.52;;;13.10;99.90;;;;;;5064610;28;20584;-39
2022/05/21 00:29:49;;;;;;;10.98;8.45;;;13.10;99.90;;;;;;5064798;28;20050;-41
2022/05/21 00:32:14;;;;;;;11.93;9.00;;;13.10;99.90;;;;;;5064545;28;20020;-41
2022/05/21 00:34:40;;;;;;;10.73;7.78;;;13.20;99.90;;;;;;5065042;28;20184;-42
2022/05/21 00:37:06;;;;;;;10.25;7.95;;;13.20;99.90;;;;;;5064884;28;20504;-42
2022/05/21 00:39:32;;;;;;;10.00;8.23;;;13.20;99.90;;;;;;5064545;28;20029;-39
2022/05/21 00:42:07;;;;;;;10.40;7.75;;;13.20;99.90;;;;;;5064919;28;20498;-41
2022/05/21 00:44:33;;;;;;;10.95;7.80;;;13.30;99.90;;;;;;5053364;28;20776;-40
2022/05/21 00:46:58;;;;;;;9.35;7.65;;;13.30;99.90;;;;;;5064548;28;20020;-42
2022/05/21 00:49:28;;;;;;;9.40;7.85;;;13.40;99.90;;;;;;5063398;28;20035;-40
2022/05/21 00:52:00;;;;;;;9.27;7.75;;;13.40;99.90;;;;;;5065536;28;20028;-42
2022/05/21 00:54:32;;;;;;;10.15;7.43;;;13.40;99.90;;;;;;5065513;28;20108;-42
2022/05/21 00:57:01;;;;;;;;;;;13.50;99.90;;;;;;5069905;28;20078;-41
2022/05/21 00:59:48;;;;;;;11.02;8.23;;;13.50;99.90;;;;;;5067880;28;20375;-42
2022/05/21 01:02:18;;;;;;;9.73;8.45;;;13.50;99.90;;;;;;5068116;28;20049;-42
2022/05/21 01:04:46;;;;;;;8.63;7.72;;;13.50;99.90;;;;;;5056330;28;20643;-42
2022/05/21 01:07:14;;;;;;;9.13;8.23;;;13.60;99.90;;;;;;5069378;28;20382;-41
2022/05/21 01:09:43;;;;;;;9.25;8.25;;;13.60;99.90;;;;;;5055834;28;20483;-41
2022/05/21 01:12:09;;;;;;;10.52;9.27;;;13.60;99.90;;;;;;5068542;28;20017;-41
2022/05/21 01:14:36;;;;;;;9.15;8.25;;;13.60;99.90;;;;;;5055914;28;20048;-42
2022/05/21 01:17:02;;;;;;;13.35;9.65;;;13.60;99.90;;;;;;5068249;28;20040;-40
2022/05/21 01:19:28;;;;;;;12.13;9.82;;;13.70;99.90;;;;;;5056021;28;20025;-41
2022/05/21 01:21:54;;;;;;;10.77;8.73;;;13.70;99.90;;;;;;5065016;28;20031;-42
2022/05/21 01:24:19;;;;;;;10.07;8.57;;;13.70;99.90;;;;;;5056827;28;20033;-40
2022/05/21 01:26:45;;;;;;;11.07;8.88;;;13.70;99.90;;;;;;5052084;28;20029;-42
2022/05/21 01:29:19;;;;;;;10.65;8.05;;;13.70;99.90;;;;;;5054783;28;20024;-42
2022/05/21 01:31:50;;;;;;;10.43;8.57;;;13.70;99.90;;;;;;5052263;28;20477;-42
2022/05/21 01:34:16;;;;;;;11.07;8.13;;;13.60;99.90;;;;;;5052706;28;20040;-41
2022/05/21 01:36:42;;;;;;;10.57;8.27;;;13.70;99.90;;;;;;5054582;28;20033;-42
2022/05/21 01:39:10;;;;;;;11.07;8.40;;;13.70;99.90;;;;;;5050373;28;20078;-41
2022/05/21 01:41:35;;;;;;;10.68;8.80;;;13.70;99.90;;;;;;5057350;28;20079;-42
2022/05/21 01:44:39;;;;;;;11.23;8.52;;;13.70;99.90;;;;;;5048075;28;20024;-41
2022/05/21 01:47:10;;;;;;;9.52;8.52;;;13.60;99.90;;;;;;5052461;28;20050;-41
2022/05/21 01:49:37;;;;;;;10.85;8.10;;;13.70;99.90;;;;;;5062453;28;20028;-42
2022/05/21 01:52:04;;;;;;;10.35;7.78;;;13.60;99.90;;;;;;5058330;28;20029;-40
2022/05/21 01:54:30;;;;;;;13.10;8.23;;;13.70;99.90;;;;;;5064766;28;20032;-42
2022/05/21 01:56:56;;;;;;;10.93;8.50;;;13.70;99.90;;;;;;5056496;28;20159;-38
2022/05/21 01:59:22;;;;;;;10.40;8.40;;;13.70;99.90;;;;;;5067503;28;20154;-42
2022/05/21 02:01:48;;;;;;;12.32;9.93;;;13.70;99.90;;;;;;5058356;28;20068;-41
2022/05/21 02:04:18;;;;;;;12.63;9.20;;;13.70;99.90;;;;;;5067061;28;20041;-42
2022/05/21 02:06:43;;;;;;;10.80;7.55;;;13.70;99.90;;;;;;5066394;28;20155;-41
2022/05/21 02:09:10;;;;;;;10.93;8.25;;;13.70;99.90;;;;;;5067432;28;20425;-42
2022/05/21 02:11:36;;;;;;;9.65;7.53;;;13.70;99.90;;;;;;5066433;28;20025;-41
2022/05/21 02:14:02;;;;;;;9.52;7.25;;;13.80;99.90;;;;;;5066868;28;20192;-41
2022/05/21 02:16:28;;;;;;;9.48;7.68;;;13.80;99.90;;;;;;5066734;28;20569;-40
2022/05/21 02:18:54;;;;;;;9.55;7.53;;;13.80;99.90;;;;;;5067632;28;20025;-42
2022/05/21 02:21:20;;;;;;;10.25;8.73;;;13.80;99.90;;;;;;5066625;28;20032;-41
2022/05/21 02:23:46;;;;;;;10.43;8.20;;;13.80;99.90;;;;;;5067142;28;20652;-41
2022/05/21 02:26:12;;;;;;;11.70;8.07;;;13.90;99.90;;;;;;5067518;28;20482;-42
2022/05/21 02:28:37;;;;;;;12.40;8.18;;;13.90;99.90;;;;;;5065334;28;20020;-41
2022/05/21 02:31:03;;;;;;;13.32;8.77;;;13.90;99.90;;;;;;5065340;28;20040;-42
2022/05/21 02:33:30;;;;;;;12.13;8.82;;;13.90;99.90;;;;;;5066078;28;20020;-42
2022/05/21 02:35:56;;;;;;;8.73;7.78;;;13.90;99.90;;;;;;5066366;28;20046;-41
2022/05/21 02:41:11;;;;;;;10.32;7.53;;;13.90;99.90;;;;;;5066902;28;20086;-41
2022/05/21 02:43:36;;;;;;;10.20;7.47;;;14.00;99.90;;;;;;5065466;28;20640;-43
2022/05/21 02:46:02;;;;;;;10.55;7.88;;;14.00;99.90;;;;;;5066465;28;20033;-39
2022/05/21 02:48:29;;;;;;;9.73;7.35;;;14.00;99.90;;;;;;5066101;28;20024;-43
2022/05/21 02:50:55;;;;;;;9.20;7.25;;;14.00;99.90;;;;;;5066594;28;20028;-43
2022/05/21 02:53:21;;;;;;;10.35;7.55;;;13.90;99.90;;;;;;5066629;28;20436;-42
2022/05/21 02:55:47;;;;;;;8.77;6.50;;;14.00;99.90;;;;;;5065645;28;20495;-40
2022/05/21 02:58:12;;;;;;;8.95;7.65;;;14.00;99.90;;;;;;5065103;28;20036;-42
2022/05/21 03:00:38;;;;;;;11.73;7.82;;;14.00;99.90;;;;;;5066070;28;20081;-42
2022/05/21 03:03:03;;;;;;;11.57;8.23;;;14.00;99.90;;;;;;5053787;28;20136;-41
2022/05/21 03:05:31;;;;;;;12.13;8.35;;;14.00;99.90;;;;;;5066038;28;20040;-42
2022/05/21 03:07:57;;;;;;;12.95;6.97;;;14.00;99.90;;;;;;5056159;28;20505;-41
2022/05/21 03:10:27;;;;;;;10.55;6.85;;;14.00;99.90;;;;;;5062831;28;20553;-41
2022/05/21 03:12:59;;;;;;;10.13;7.75;;;14.00;99.90;;;;;;5057943;28;20070;-42
2022/05/21 03:15:37;;;;;;;10.83;7.70;;;14.00;99.90;;;;;;5061368;28;20380;-36
2022/05/21 03:18:07;;;;;;;12.73;8.70;;;14.00;99.90;;;;;;5057232;28;20032;-42
2022/05/21 03:20:33;;;;;;;9.05;8.02;;;14.00;99.90;;;;;;5061886;28;20032;-38
2022/05/21 03:22:59;;;;;;;12.18;7.88;;;14.00;99.90;;;;;;5060329;28;20353;-41
2022/05/21 03:25:24;;;;;;;12.52;7.40;;;14.00;99.90;;;;;;5060046;28;20066;-41
2022/05/21 03:27:51;;;;;;;13.95;7.97;;;14.00;99.90;;;;;;5062885;28;20117;-42
2022/05/21 03:30:19;;;;;;;11.38;8.45;;;14.00;99.90;;;;;;5057152;28;20060;-41
2022/05/21 03:32:44;;;;;;;10.27;7.65;;;14.00;99.90;;;;;;5063962;28;20021;-42
2022/05/21 03:35:12;;;;;;;13.60;8.93;;;13.90;99.90;;;;;;5053972;28;20029;-40
2022/05/21 03:37:41;;;;;;;12.80;8.30;;;13.90;99.90;;;;;;5062931;28;20429;-40
2022/05/21 03:40:08;;;;;;;11.77;8.05;;;13.90;99.90;;;;;;5053784;28;20349;-42
2022/05/21 03:42:34;;;;;;;11.45;8.18;;;13.90;99.90;;;;;;5065232;28;20028;-41
2022/05/21 03:45:00;;;;;;;11.70;8.50;;;13.90;99.90;;;;;;5053558;28;20029;-42
2022/05/21 03:47:26;;;;;;;12.10;7.85;;;13.90;99.90;;;;;;5065562;28;20016;-38
2022/05/21 03:49:51;;;;;;;13.02;8.23;;;13.80;99.90;;;;;;5053163;28;20037;-42
2022/05/21 03:52:17;;;;;;;8.98;7.47;;;13.80;99.90;;;;;;5065208;28;20103;-39
2022/05/21 03:54:42;;;;;;;12.77;8.50;;;13.80;99.90;;;;;;5053945;28;20747;-42
2022/05/21 03:57:10;;;;;;;12.60;8.25;;;13.80;99.90;;;;;;5064879;28;20077;-40
2022/05/21 03:59:36;;;;;;;8.52;7.35;;;13.80;99.90;;;;;;5055224;28;20037;-40
2022/05/21 04:02:02;;;;;;;13.13;7.45;;;13.90;99.90;;;;;;5062751;28;20625;-42
2022/05/21 04:04:28;;;;;;;9.60;7.28;;;13.90;99.90;;;;;;5064905;28;20422;-39
2022/05/21 04:06:53;;;;;;;12.48;7.75;;;14.00;99.90;;;;;;5065260;28;20474;-41
2022/05/21 04:09:19;;;;;;;14.07;7.40;;;14.10;99.90;;;;;;5065708;28;20029;-42
2022/05/21 04:11:47;;;;;;;10.57;6.15;;;14.10;99.90;;;;;;5065830;28;20068;-33
2022/05/21 04:14:14;;;;;;;10.32;6.22;;;14.10;99.90;;;;;;5064616;28;20013;-41
2022/05/21 04:16:41;;;;;;;13.65;7.50;;;14.10;99.90;;;;;;5065563;28;20029;-41
2022/05/21 04:19:07;;;;;;;14.77;7.20;;;14.10;99.90;;;;;;5065889;28;20021;-39
2022/05/21 04:21:32;;;;;;;9.80;6.72;;;14.20;99.90;;;;;;5063719;28;20048;-41
2022/05/21 04:23:58;;;;;;;11.02;6.70;;;14.20;99.90;;;;;;5064816;28;20012;-41
2022/05/21 04:26:23;;;;;;;10.02;6.43;;;14.20;99.90;;;;;;5065390;28;20826;-42
2022/05/21 04:28:49;;;;;;;12.10;6.32;;;14.20;99.90;;;;;;5068393;28;20048;-42
2022/05/21 04:31:14;;;;;;;13.68;6.20;;;14.30;99.90;;;;;;5068810;28;20066;-42
2022/05/21 04:33:40;;;;;;;8.75;5.57;;;14.20;99.90;;;;;;5069254;28;20031;-41
2022/05/21 04:36:18;;;;;;;10.02;6.63;;;14.30;99.90;;;;;;5068470;28;20020;-42
2022/05/21 04:38:48;;;;;;;9.40;5.60;;;14.30;99.90;;;;;;5049018;28;20028;-42
2022/05/21 04:41:14;;;;;;;11.25;6.40;;;14.30;99.90;;;;;;5064677;28;20028;-41
2022/05/21 04:43:40;;;;;;;13.02;7.25;;;14.30;99.90;;;;;;5068596;28;20075;-40
2022/05/21 04:46:06;;;;;;;10.30;6.10;;;14.30;99.90;;;;;;5068610;28;20119;-40
2022/05/21 04:48:32;;;;;;;10.95;6.00;;;14.40;99.90;;;;;;5068189;28;20546;-41
2022/05/21 04:51:00;;;;;;;10.32;6.00;;;14.40;99.90;;;;;;5069465;28;20523;-40
2022/05/21 04:53:25;;;;;;;10.77;6.28;;;14.40;99.90;;;;;;5069211;28;20012;-41
2022/05/21 04:55:51;;;;;;;13.00;6.53;;;14.40;99.90;;;;;;5068013;28;20102;-42
2022/05/21 04:58:16;;;;;;;10.23;5.43;;;14.50;99.90;;;;;;5068218;28;20072;-41
2022/05/21 05:00:42;;;;;;;11.70;6.20;;;14.50;99.90;;;;;;5068484;28;20043;-43
2022/05/21 05:03:12;;;;;;;12.55;5.60;;;14.50;99.90;;;;;;5056862;28;20033;-39
2022/05/21 05:05:39;;;;;;;15.65;6.20;;;14.50;99.90;;;;;;5066994;28;20052;-41
2022/05/21 05:08:06;;;;;;;9.25;5.80;;;14.50;99.90;;;;;;5057679;28;20013;-40
2022/05/21 05:10:32;;;;;;;11.13;4.95;;;14.60;99.90;;;;;;5066973;28;20059;-42
2022/05/21 05:12:57;;;;;;;10.50;5.15;;;14.60;99.90;;;;;;5057181;28;20046;-41
2022/05/21 05:15:23;;;;;;;11.45;5.00;;;14.60;99.90;;;;;;5069196;28;20459;-41
2022/05/21 05:17:49;;;;;;;9.07;4.88;;;14.60;99.90;;;;;;5055100;28;20036;-39
2022/05/21 05:20:14;;;;;;;8.50;4.18;;;14.70;99.90;;;;;;5068765;28;20028;-43
2022/05/21 05:22:40;;;;;;;11.40;4.82;;;14.70;99.90;;;;;;5060744;28;20040;-41
2022/05/21 05:25:06;;;;;;;12.75;4.25;;;14.70;99.90;;;;;;5067626;28;20487;-42
2022/05/21 05:27:32;;;;;;;8.93;4.03;;;14.70;99.90;;;;;;5058777;28;20657;-40
2022/05/21 05:29:58;;;;;;;12.10;4.55;;;14.80;99.90;;;;;;5065652;28;20456;-41
2022/05/21 05:32:24;;;;;;;10.02;3.75;;;14.80;99.90;;;;;;5060940;28;20032;-42
2022/05/21 05:34:49;;;;;;;8.15;4.07;;;14.90;99.90;;;;;;5062875;28;20029;-41
2022/05/21 05:37:15;;;;;;;7.45;3.80;;;15.00;99.90;;;;;;5064674;28;20044;-42
2022/05/21 05:39:40;;;;;;;11.07;4.60;;;15.00;99.90;;;;;;5059103;28;20040;-40
2022/05/21 05:42:09;;;;;;;14.05;4.82;;;15.00;99.90;;;;;;5066756;28;20009;-41
2022/05/21 05:44:35;;;;;;;8.80;4.50;;;14.90;99.90;;;;;;5057026;28;20544;-40
2022/05/21 05:47:01;;;;;;;10.30;4.80;;;14.90;99.90;;;;;;5065556;28;20104;-42
2022/05/21 05:49:26;;;;;;;12.25;5.07;;;14.90;99.90;;;;;;5056643;28;20464;-42
2022/05/21 05:51:51;;;;;;;9.38;4.20;;;14.90;99.90;;;;;;5066932;28;20177;-41
2022/05/21 05:54:17;;;;;;;9.80;3.97;;;14.90;99.90;;;;;;5055702;28;20016;-42
2022/05/21 05:56:44;;;;;;;7.97;3.63;;;14.90;99.90;;;;;;5067938;28;20594;-38
2022/05/21 06:04:55;;;;;;;11.60;4.38;;;14.80;99.90;;;;;;5065634;28;20126;-40
2022/05/21 06:07:21;;;;;;;9.30;3.55;;;14.80;99.90;;;;;;5067454;28;20025;-39
2022/05/21 06:09:47;;;;;;;8.05;2.95;;;14.90;99.90;;;;;;5067746;28;20555;-39
2022/05/21 06:12:14;;;;;;;10.40;3.53;;;15.00;99.90;;;;;;5067410;28;20039;-39
2022/05/21 06:14:40;;;;;;;10.02;3.10;;;15.20;99.90;;;;;;5067091;28;20086;-40
2022/05/21 06:17:06;;;;;;;7.80;3.13;;;15.30;99.90;;;;;;5068146;28;20407;-41
2022/05/21 06:19:31;;;;;;;10.13;3.40;;;15.30;99.90;;;;;;5066376;28;20064;-41
2022/05/21 06:21:58;;;;;;;13.77;3.35;;;15.40;99.90;;;;;;5066036;28;20040;-42
2022/05/21 06:24:23;;;;;;;9.95;2.75;;;15.40;99.90;;;;;;5064687;28;20480;-42
2022/05/21 06:26:49;;;;;;;9.68;2.85;;;15.50;99.90;;;;;;5066284;28;20024;-38
2022/05/21 06:29:14;;;;;;;10.38;3.08;;;15.50;99.90;;;;;;5065246;28;20031;-42
2022/05/21 06:31:40;;;;;;;7.05;2.70;;;15.60;99.90;;;;;;5065883;28;20431;-41
2022/05/21 06:34:05;;;;;;;8.95;2.70;;;15.60;99.90;;;;;;5066211;28;20029;-41
2022/05/21 06:36:32;;;;;;;6.57;2.47;;;15.60;99.90;;;;;;5066705;28;20035;-41
2022/05/21 06:38:57;;;;;;;8.25;2.40;;;15.70;99.90;;;;;;5067322;28;20028;-38
2022/05/21 06:41:23;;;;;;;6.22;2.00;;;15.70;99.90;;;;;;5066613;28;20093;-41
2022/05/21 06:43:48;;;;;;;6.55;2.35;;;15.70;99.90;;;;;;5067336;28;20017;-39
2022/05/21 06:46:14;;;;;;;11.60;2.72;;;15.70;99.90;;;;;;5066886;28;20036;-45
2022/05/21 06:48:40;;;;;;;6.72;2.28;;;15.70;99.90;;;;;;5065985;28;20107;-41
2022/05/21 06:51:05;;;;;;;8.05;2.33;;;15.70;99.90;;;;;;5066233;28;20028;-41
2022/05/21 06:53:33;;;;;;;8.48;2.25;;;15.80;99.90;;;;;;5066613;28;20027;-41
2022/05/21 06:55:59;;;;;;;5.88;1.98;;;15.90;99.90;;;;;;5065326;28;20037;-43
2022/05/21 06:58:24;;;;;;;14.05;3.15;;;15.90;99.90;;;;;;5067173;28;20353;-41
2022/05/21 07:00:50;;;;;;;7.88;2.42;;;16.00;99.90;;;;;;5066272;28;20061;-42
2022/05/21 07:03:15;;;;;;;7.53;2.97;;;16.10;99.90;;;;;;5047155;28;20029;-41
2022/05/21 07:08:28;;;;;;;8.38;2.17;;;16.10;99.90;;;;;;5048541;28;20048;-41
2022/05/21 07:10:53;;;;;;;8.02;2.08;;;16.20;99.90;;;;;;5054775;28;20025;-41
2022/05/21 07:13:23;;;;;;;4.68;1.40;;;16.30;99.90;;;;;;5050381;28;20028;-41
2022/05/21 07:15:50;;;;;;;5.78;2.30;;;16.30;99.90;;;;;;5052790;28;20052;-41
2022/05/21 07:18:18;;;;;;;6.22;1.80;;;16.40;99.90;;;;;;5051473;28;20483;-40
2022/05/21 07:20:43;;;;;;;7.65;2.67;;;16.30;99.90;;;;;;5050063;28;20605;-40
2022/05/21 07:23:09;;;;;;;10.40;2.40;;;16.30;99.90;;;;;;5062363;28;20064;-41
2022/05/21 07:25:35;;;;;;;7.75;1.95;;;16.30;99.90;;;;;;5063404;28;20113;-39
2022/05/21 07:28:01;;;;;;;6.65;1.73;;;16.40;99.90;;;;;;5054987;28;20396;-41
2022/05/21 07:30:28;;;;;;;8.60;1.83;;;16.30;99.90;;;;;;5063173;28;20025;-41
2022/05/21 07:32:55;;;;;;;6.18;1.73;;;16.20;99.90;;;;;;5054951;28;20052;-41
2022/05/21 07:35:22;;;;;;;8.32;2.00;;;16.30;99.90;;;;;;5064865;28;20063;-42
2022/05/21 07:37:48;;;;;;;5.18;1.80;;;16.30;99.90;;;;;;5053277;28;20024;-41
2022/05/21 07:40:16;;;;;;;6.07;1.92;;;16.30;99.90;;;;;;5053379;28;20071;-38
2022/05/21 07:42:41;;;;;;;7.38;1.90;;;16.20;99.90;;;;;;5057969;28;20075;-39
2022/05/21 07:45:09;;;;;;;8.73;2.20;;;16.20;99.90;;;;;;5045592;28;20060;-42
2022/05/21 07:47:37;;;;;;;8.02;2.20;;;16.20;99.90;;;;;;5054864;28;20079;-40
2022/05/21 07:50:03;;;;;;;9.70;2.25;;;16.30;99.90;;;;;;5024881;28;20048;-42
2022/05/21 07:52:30;;;;;;;8.25;2.10;;;16.40;99.90;;;;;;5048568;28;20028;-42
2022/05/21 07:54:56;;;;;;;6.55;2.13;;;16.40;99.90;;;;;;5047532;28;20021;-41
2022/05/21 07:57:22;;;;;;;5.05;1.67;;;16.50;99.90;;;;;;5052580;28;20091;-39
2022/05/21 07:59:48;;;;;;;3.95;1.63;;;16.70;99.90;;;;;;5049537;28;20104;-41
2022/05/21 08:02:16;;;;;;;6.43;1.98;;;16.70;99.90;;;;;;5051364;28;20059;-39
2022/05/21 08:04:43;;;;;;;6.57;1.98;;;16.80;99.90;;;;;;5058194;28;20480;-41
2022/05/21 08:07:08;;;;;;;5.82;2.13;;;16.80;99.90;;;;;;5061878;28;20036;-41
2022/05/21 08:09:34;;;;;;;5.70;2.00;;;16.90;99.90;;;;;;5055921;28;20030;-42
2022/05/21 08:12:00;;;;;;;8.57;2.20;;;16.90;99.90;;;;;;5063273;28;20802;-41
2022/05/21 08:14:25;;;;;;;7.90;2.05;;;17.00;99.90;;;;;;5052351;28;20055;-41
2022/05/21 08:16:51;;;;;;;7.82;1.95;;;17.00;99.90;;;;;;5061582;28;20396;-41
2022/05/21 08:19:17;;;;;;;8.82;2.00;;;17.00;99.90;;;;;;5052471;28;20048;-41
2022/05/21 08:21:43;;;;;;;10.10;3.10;;;17.00;99.90;;;;;;5064673;28;20776;-42
2022/05/21 08:26:56;;;;;;;7.03;2.53;;;17.10;99.90;;;;;;5063747;28;20619;-42
2022/05/21 08:29:23;;;;;;;11.35;2.10;;;17.10;99.90;;;;;;5051636;28;20055;-40
2022/05/21 08:31:48;;;;;;;5.88;1.77;;;17.20;99.90;;;;;;5064913;28;20529;-38
2022/05/21 08:34:14;;;;;;;8.93;2.10;;;17.30;99.90;;;;;;5051053;28;20029;-41
2022/05/21 08:36:46;;;;;;;7.72;2.10;;;17.40;99.90;;;;;;5064722;28;20025;-44
2022/05/21 08:39:11;;;;;;;7.53;1.92;;;17.40;99.90;;;;;;5053390;28;20017;-42
2022/05/21 08:41:45;;;;;;;5.47;1.85;;;17.50;99.90;;;;;;5062984;28;20048;-42
2022/05/21 08:44:39;;;;;;;6.75;1.50;;;17.50;99.90;;;;;;5055137;28;20373;-41
2022/05/21 08:47:20;;;;;;;6.97;2.05;;;17.70;99.90;;;;;;5025044;28;20073;-41
2022/05/21 08:50:00;;;;;;;6.47;2.30;;;17.80;99.90;;;;;;5053962;28;20489;-41
2022/05/21 08:52:30;;;;;;;4.13;1.73;;;17.80;99.90;;;;;;5043784;28;20040;-40
2022/05/21 08:54:58;;;;;;;6.82;1.60;;;17.80;99.90;;;;;;5054688;28;20120;-41
2022/05/21 08:57:42;;;;;;;6.90;2.00;;;17.80;99.90;;;;;;5043829;28;20055;-40
2022/05/21 09:00:12;;;;;;;7.13;1.80;;;17.90;99.90;;;;;;5056993;28;20021;-41
2022/05/21 09:02:38;;;;;;;5.13;1.52;;;17.90;99.90;;;;;;5058515;28;20047;-40
2022/05/21 09:05:11;;;;;;;3.28;1.20;;;17.90;99.90;;;;;;5052511;28;20041;-42
2022/05/21 09:07:50;;;;;;;4.78;1.77;;;17.90;99.90;;;;;;5024845;28;20057;-39
2022/05/21 09:10:18;;;;;;;5.88;1.83;;;17.90;99.90;;;;;;5052568;28;20028;-41
2022/05/21 09:13:12;;;;;;;6.65;1.80;;;17.90;99.90;;;;;;5045822;28;20071;-41
2022/05/21 09:18:25;;;;;;;8.02;2.20;;;18.00;99.90;;;;;;5048821;28;20036;-41
2022/05/21 09:21:00;;;;;;;5.47;1.92;;;18.10;99.90;;;;;;5061984;28;20115;-42
2022/05/21 09:23:45;;;;;;;5.63;2.13;;;18.30;99.90;;;;;;5057216;28;20016;-43
2022/05/21 09:26:11;;;;;;;6.28;1.42;;;18.50;99.90;;;;;;5056080;28;20134;-40
2022/05/21 09:28:38;;;;;;;6.35;1.75;;;18.60;99.90;;;;;;5067611;28;20067;-40
2022/05/21 09:31:06;;;;;;;4.75;1.95;;;18.70;99.90;;;;;;5055181;28;20029;-40
2022/05/21 09:33:45;;;;;;;6.47;1.70;;;18.70;99.90;;;;;;5067824;28;20194;-41
2022/05/21 09:36:18;;;;;;;4.68;1.73;;;18.70;99.90;;;;;;5054923;28;20108;-41
2022/05/21 09:38:51;;;;;;;;;;;18.80;99.90;;;;;;5027148;28;20853;-39
2022/05/21 09:41:32;;;;;;;4.97;1.90;;;18.80;99.90;;;;;;5054790;28;19924;-39
2022/05/21 09:47:10;;;;;;;8.82;2.28;;;18.60;99.90;;;;;;5061142;28;20155;-41
2022/05/21 09:49:35;;;;;;;6.38;2.53;;;18.40;99.90;;;;;;5048127;28;20114;-41
2022/05/21 09:52:23;;;;;;;7.55;2.13;;;18.10;99.90;;;;;;5059683;28;20448;-42
2022/05/21 09:54:49;;;;;;;5.15;2.35;;;18.00;99.90;;;;;;5048242;28;20769;-40
2022/05/21 09:57:37;;;;;;;7.90;2.90;;;17.90;99.90;;;;;;5059660;28;20116;-38
2022/05/21 10:00:31;;;;;;;5.80;2.30;;;17.80;99.90;;;;;;5046978;28;20115;-43
2022/05/21 10:02:59;;;;;;;6.55;2.30;;;17.90;99.90;;;;;;5055728;28;20519;-41
2022/05/21 10:05:36;;;;;;;7.00;2.30;;;18.10;99.90;;;;;;5045892;28;20065;-40
2022/05/21 10:11:00;;;;;;;7.25;2.45;;;18.30;99.90;;;;;;5046840;28;20090;-40
2022/05/21 10:13:39;;;;;;;4.93;2.28;;;18.30;99.90;;;;;;5056450;28;20028;-38
2022/05/21 10:16:31;;;;;;;5.80;2.15;;;18.40;99.90;;;;;;5049461;28;20043;-42
2022/05/21 10:19:36;;;;;;;8.32;2.20;;;18.50;99.90;;;;;;5050764;28;20116;-42
2022/05/21 10:22:27;;;;;;;5.72;2.10;;;18.70;99.90;;;;;;5061006;28;20428;-41
2022/05/21 10:24:54;;;;;;;9.07;2.92;;;18.90;99.90;;;;;;5047563;28;20397;-42
2022/05/21 10:27:59;;;;;;;8.45;2.13;;;19.00;99.90;;;;;;5054686;28;20012;-41
2022/05/21 10:30:29;;;;;;;5.80;2.10;;;18.90;99.90;;;;;;5026586;28;20643;-40
2022/05/21 10:33:31;;;;;;;5.65;2.20;;;19.00;99.90;;;;;;5052975;28;20456;-39
2022/05/21 10:36:04;;;;;;;5.50;2.67;;;19.10;99.90;;;;;;5027699;28;20025;-42
2022/05/21 10:38:32;;;;;;;7.32;2.15;;;19.30;99.90;;;;;;5057628;28;20025;-40
2022/05/21 10:41:36;;;;;;;11.60;2.08;;;19.40;99.90;;;;;;5045989;28;20488;-40
2022/05/21 10:44:27;;;;;;;4.97;1.75;;;19.50;99.70;;;;;;5055275;28;20020;-41
2022/05/21 10:47:05;;;;;;;6.97;2.30;;;19.60;99.80;;;;;;5065181;28;20044;-41
2022/05/21 10:49:54;;;;;;;8.38;2.30;;;19.60;99.70;;;;;;5054624;28;20032;-41
2022/05/21 10:52:34;;;;;;;5.97;1.77;;;19.60;99.30;;;;;;5065250;28;20391;-40
2022/05/21 10:55:22;;;;;;;6.65;2.03;;;19.60;99.30;;;;;;5046431;28;20029;-41
2022/05/21 10:58:23;;;;;;;8.70;2.20;;;19.60;99.30;;;;;;5063607;28;20033;-41
2022/05/21 11:01:17;;;;;;;4.15;1.50;;;19.60;99.30;;;;;;5061378;28;20066;-41
2022/05/21 11:04:24;;;;;;;4.07;1.45;;;19.70;99.30;;;;;;5056996;28;21015;-43
2022/05/21 11:07:02;;;;;;;4.28;1.60;;;19.70;99.20;;;;;;5026933;28;20041;-40
2022/05/21 11:09:35;;;;;;;6.45;2.28;;;19.70;99.30;;;;;;5056102;28;20025;-39
2022/05/21 11:12:04;;;;;;;;;;;19.70;99.20;;;;;;5046558;28;20480;-42
2022/05/21 11:14:46;;;;;;;6.32;2.17;;;19.70;99.20;;;;;;5057808;28;20429;-41
2022/05/21 11:17:33;;;;;;;7.03;2.50;;;19.70;99.00;;;;;;5046160;28;20036;-41
2022/05/21 11:20:06;;;;;;;6.28;2.25;;;19.60;98.80;;;;;;5058493;28;20033;-40
2022/05/21 11:22:44;;;;;;;6.18;2.30;;;19.50;99.00;;;;;;5045590;28;20462;-39
2022/05/21 11:25:15;;;;;;;5.22;1.90;;;19.50;99.10;;;;;;5058919;28;20039;-40
2022/05/21 11:28:04;;;;;;;5.25;1.92;;;19.50;98.90;;;;;;5046075;28;20021;-41
2022/05/21 11:30:30;;;;;;;3.42;1.80;;;19.50;99.00;;;;;;5051325;28;20060;-41
2022/05/21 11:38:46;;;;;;;5.07;2.10;;;19.60;98.40;;;;;;5065073;28;20039;-41
2022/05/21 11:41:25;;;;;;;5.65;1.65;;;19.60;98.60;;;;;;5055163;28;20021;-40
2022/05/21 11:43:54;;;;;;;6.72;2.10;;;19.60;98.50;;;;;;5046677;28;20658;-42
2022/05/21 11:46:26;;;;;;;5.47;2.00;;;19.60;98.50;;;;;;5054105;28;20428;-41
2022/05/21 11:48:52;;;;;;;8.68;1.95;;;19.70;98.30;;;;;;5047097;28;20025;-41
2022/05/21 11:51:17;;;;;;;7.10;1.88;;;19.70;98.40;;;;;;5056833;28;20472;-42
2022/05/21 11:53:44;;;;;;;8.43;2.30;;;19.90;98.40;;;;;;5046569;28;20348;-41
2022/05/21 11:56:11;;;;;;;5.10;2.10;;;20.00;98.20;;;;;;5058986;28;20055;-41
2022/05/21 11:58:58;;;;;;;5.35;1.80;;;20.20;98.40;;;;;;5046170;28;20020;-41
2022/05/21 12:01:38;;;;;;;6.78;1.90;;;20.30;98.00;;;;;;5058315;28;20045;-41
2022/05/21 12:04:05;;;;;;;4.25;1.50;;;20.40;97.80;;;;;;5046984;28;20067;-41
2022/05/21 12:06:41;;;;;;;3.35;1.50;;;20.40;97.60;;;;;;5057398;28;20066;-41
2022/05/21 12:09:28;;;;;;;6.05;2.13;;;20.40;97.70;;;;;;5046716;28;20535;-42
2022/05/21 12:12:21;;;;;;;5.38;1.80;;;20.50;97.70;;;;;;5052679;28;20021;-39
2022/05/21 12:15:10;;;;;;;5.78;1.90;;;20.50;97.70;;;;;;5065447;28;20028;-41
2022/05/21 12:17:41;;;;;;;4.63;2.25;;;20.40;96.90;;;;;;5054947;28;20540;-40
2022/05/21 12:20:11;;;;;;;5.72;1.85;;;20.30;97.00;;;;;;5065048;28;20056;-40
2022/05/21 12:22:44;;;;;;;4.88;1.92;;;20.20;97.10;;;;;;5054380;28;20049;-40
2022/05/21 12:25:32;;;;;;;5.93;1.63;;;20.20;97.00;;;;;;5048386;28;20143;-41
2022/05/21 12:28:02;;;;;;;4.50;1.58;;;20.20;96.90;;;;;;5056002;28;20071;-40
2022/05/21 12:30:29;;;;;;;7.70;1.73;;;20.20;96.70;;;;;;5045254;28;20037;-40
2022/05/21 12:32:55;;;;;;;5.05;1.67;;;20.20;96.70;;;;;;5056211;28;20021;-40
2022/05/21 12:35:42;;;;;;;4.00;1.50;;;20.30;96.70;;;;;;5045689;28;20384;-42
2022/05/21 12:38:28;;;;;;;4.80;1.85;;;20.40;96.50;;;;;;5055804;28;20021;-42
2022/05/21 12:41:05;;;;;;;7.32;1.88;;;20.40;96.40;;;;;;5046909;28;20020;-40
2022/05/21 12:43:48;;;;;;;6.55;1.83;;;20.40;96.40;;;;;;5042873;28;20028;-40
2022/05/21 12:46:21;;;;;;;2.47;1.08;;;20.40;96.50;;;;;;5064372;28;20089;-41
2022/05/21 12:48:49;;;;;;;3.53;1.05;;;20.40;96.60;;;;;;5045666;28;20078;-39
2022/05/21 12:51:36;;;;;;;7.20;2.10;;;20.50;96.70;;;;;;5068127;28;20033;-39
2022/05/21 12:54:05;;;;;;;4.03;1.35;;;20.60;96.70;;;;;;5049745;28;20029;-42
2022/05/21 12:56:36;;;;;;;6.40;2.05;;;20.70;96.60;;;;;;5067760;28;20023;-39
2022/05/21 12:59:11;;;;;;;4.50;2.00;;;20.80;96.40;;;;;;5047720;28;20058;-41
2022/05/21 13:01:43;;;;;;;6.53;1.90;;;20.70;95.80;;;;;;5066545;28;20061;-41
2022/05/21 13:04:31;;;;;;;5.68;1.63;;;20.60;96.20;;;;;;5058283;28;20020;-41
2022/05/21 13:07:03;;;;;;;4.35;1.80;;;20.40;96.40;;;;;;5067157;28;20024;-41
2022/05/21 13:09:30;;;;;;;4.65;1.65;;;20.50;96.40;;;;;;5058416;28;20107;-41
2022/05/21 13:11:56;;;;;;;7.78;2.05;;;20.60;96.50;;;;;;5068004;28;20021;-42
2022/05/21 13:14:30;;;;;;;6.97;1.73;;;20.60;96.30;;;;;;5057270;28;20067;-41
2022/05/21 13:16:58;;;;;;;5.07;1.73;;;20.80;96.20;;;;;;5066092;28;20626;-41
2022/05/21 13:19:44;;;;;;;6.47;1.85;;;20.90;95.10;;;;;;5056812;28;20070;-41
2022/05/21 13:22:20;;;;;;;4.03;1.80;;;20.80;95.40;;;;;;5067009;28;20024;-40
2022/05/21 13:24:57;;;;;;;4.57;1.50;;;20.90;95.20;;;;;;5067193;28;20060;-40
2022/05/21 13:27:24;;;;;;;5.00;1.45;;;20.80;94.50;;;;;;5064211;28;20491;-41